createdAt,value
2022-09-01T00:01:20.036Z,1.85
2022-09-01T00:06:23.337Z,2.00
2022-09-01T00:11:26.322Z,2.08
2022-09-01T00:16:30.215Z,2.03
2022-09-01T00:21:39.091Z,1.83
2022-09-01T00:26:40.601Z,2.05
2022-09-01T00:31:42.847Z,1.87
2022-09-01T00:36:43.957Z,1.80
2022-09-01T00:41:46.487Z,2.10
2022-09-01T00:46:51.078Z,1.80
2022-09-01T00:52:04.621Z,2.15
2022-09-01T00:57:07.783Z,2.08
2022-09-01T01:07:12.571Z,1.95
2022-09-01T01:12:17.502Z,1.80
2022-09-01T01:17:20.902Z,1.77
2022-09-01T01:22:49.386Z,2.05
2022-09-01T01:27:51.382Z,1.55
2022-09-01T01:32:54.686Z,2.70
2022-09-01T01:37:56.293Z,1.80
2022-09-01T01:42:58.174Z,2.75
2022-09-01T01:48:00.920Z,1.90
2022-09-01T01:53:11.523Z,1.58
2022-09-01T01:58:14.715Z,2.10
2022-09-01T02:03:21.188Z,2.08
2022-09-01T02:08:25.160Z,2.37
2022-09-01T02:13:30.124Z,2.28
2022-09-01T02:18:35.516Z,2.50
2022-09-01T02:23:38.215Z,2.00
2022-09-01T02:28:41.861Z,1.85
2022-09-01T02:33:46.322Z,1.60
2022-09-01T02:38:53.271Z,2.33
2022-09-01T02:43:54.849Z,1.90
2022-09-01T02:48:56.903Z,1.87
2022-09-01T02:53:57.798Z,2.22
2022-09-01T02:59:00.967Z,2.10
2022-09-01T03:04:08.204Z,2.20
2022-09-01T03:09:14.579Z,1.80
2022-09-01T03:14:16.655Z,1.95
2022-09-01T03:19:18.290Z,2.03
2022-09-01T03:24:21.338Z,1.70
2022-09-01T03:29:22.807Z,2.00
2022-09-01T03:34:23.985Z,2.10
2022-09-01T03:44:28.322Z,2.20
2022-09-01T03:49:29.237Z,2.47
2022-09-01T03:54:32.283Z,2.37
2022-09-01T03:59:33.130Z,2.40
2022-09-01T04:04:34.016Z,2.35
2022-09-01T04:09:35.814Z,2.17
2022-09-01T04:14:36.684Z,2.50
2022-09-01T04:19:38.671Z,2.72
2022-09-01T04:24:44.934Z,2.10
2022-09-01T04:29:47.112Z,2.50
2022-09-01T04:34:48.000Z,2.40
2022-09-01T04:39:56.678Z,2.40
2022-09-01T04:45:05.086Z,2.50
2022-09-01T04:50:16.835Z,2.60
2022-09-01T04:55:30.202Z,4.85
2022-09-01T05:00:32.082Z,2.80
2022-09-01T05:05:42.367Z,2.72
2022-09-01T05:10:46.179Z,2.30
2022-09-01T05:16:03.568Z,2.22
2022-09-01T05:21:10.543Z,2.95
2022-09-01T05:26:18.291Z,2.55
2022-09-01T05:31:21.307Z,2.30
2022-09-01T05:36:23.415Z,2.40
2022-09-01T05:41:26.375Z,3.05
2022-09-01T05:46:29.080Z,2.40
2022-09-01T05:51:45.635Z,2.40
2022-09-01T05:56:49.222Z,2.50
2022-09-01T06:01:55.903Z,2.20
2022-09-01T06:07:05.954Z,2.83
2022-09-01T06:12:16.511Z,2.05
2022-09-01T06:17:22.436Z,2.20
2022-09-01T06:22:27.200Z,2.37
2022-09-01T06:27:28.557Z,2.70
2022-09-01T06:32:29.550Z,2.17
2022-09-01T06:37:31.032Z,2.40
2022-09-01T06:42:35.355Z,2.53
2022-09-01T06:47:36.495Z,2.20
2022-09-01T06:58:14.711Z,2.40
2022-09-01T07:03:23.109Z,1.92
2022-09-01T07:16:32.150Z,1.98
2022-09-01T07:21:40.847Z,2.30
2022-09-01T07:26:49.933Z,2.20
2022-09-01T07:54:29.682Z,2.37
2022-09-01T07:59:32.705Z,2.45
2022-09-01T08:04:39.136Z,2.50
2022-09-01T08:09:44.213Z,4.13
2022-09-01T08:14:46.783Z,2.62
2022-09-01T08:19:47.949Z,2.95
2022-09-01T08:24:57.258Z,2.60
2022-09-01T08:29:59.553Z,2.92
2022-09-01T08:35:01.412Z,3.10
2022-09-01T08:40:05.616Z,2.72
2022-09-01T08:45:23.065Z,3.10
2022-09-01T08:50:24.761Z,3.00
2022-09-01T08:55:49.530Z,2.97
2022-09-01T09:01:03.383Z,2.90
2022-09-01T09:13:02.380Z,2.90
2022-09-01T09:18:38.920Z,3.08
2022-09-01T09:23:50.064Z,3.10
2022-09-01T09:28:51.027Z,3.83
2022-09-01T09:33:53.711Z,3.47
2022-09-01T09:39:16.642Z,3.90
2022-09-01T09:44:31.252Z,4.03
2022-09-01T09:49:41.415Z,4.95
2022-09-01T09:55:05.047Z,4.90
2022-09-01T10:00:23.891Z,3.78
2022-09-01T10:05:39.191Z,3.90
2022-09-01T10:10:56.472Z,4.80
2022-09-01T10:16:05.699Z,4.72
2022-09-01T10:21:23.279Z,4.40
2022-09-01T10:26:38.277Z,3.87
2022-09-01T10:31:41.793Z,4.07
2022-09-01T10:36:47.053Z,3.60
2022-09-01T10:42:06.667Z,3.42
2022-09-01T10:47:29.740Z,3.45
2022-09-01T10:55:24.479Z,3.08
2022-09-01T11:07:16.581Z,2.67
2022-09-01T11:12:42.894Z,3.28
2022-09-01T11:18:26.138Z,3.10
2022-09-01T11:23:30.481Z,3.20
2022-09-01T11:28:39.482Z,3.10
2022-09-01T11:33:50.992Z,2.90
2022-09-01T11:39:39.439Z,3.13
2022-09-01T11:47:26.400Z,2.62
2022-09-01T11:52:30.819Z,3.20
2022-09-01T11:57:35.159Z,3.00
2022-09-01T12:02:46.433Z,3.35
2022-09-01T12:07:47.543Z,2.53
2022-09-01T12:12:48.582Z,3.03
2022-09-01T12:17:50.741Z,2.75
2022-09-01T12:22:51.940Z,3.40
2022-09-01T12:27:52.820Z,2.62
2022-09-01T12:33:22.747Z,3.28
2022-09-01T12:38:27.897Z,4.18
2022-09-01T12:43:39.446Z,2.50
2022-09-01T12:48:41.220Z,2.62
2022-09-01T12:53:52.319Z,3.20
2022-09-01T12:59:05.507Z,2.70
2022-09-01T13:04:22.474Z,2.50
2022-09-01T13:09:23.423Z,2.60
2022-09-01T13:14:24.912Z,2.70
2022-09-01T13:19:28.792Z,2.87
2022-09-01T13:24:32.057Z,2.22
2022-09-01T13:29:33.422Z,2.47
2022-09-01T13:34:34.814Z,2.67
2022-09-01T13:39:36.377Z,2.53
2022-09-01T13:44:38.192Z,2.40
2022-09-01T13:49:44.584Z,2.28
2022-09-01T13:55:09.247Z,2.70
2022-09-01T14:00:14.899Z,2.75
2022-09-01T14:05:18.422Z,2.55
2022-09-01T14:10:21.601Z,2.62
2022-09-01T14:15:27.112Z,1.90
2022-09-01T14:20:36.805Z,2.50
2022-09-01T14:25:43.348Z,2.10
2022-09-01T14:30:44.583Z,2.30
2022-09-01T14:35:47.440Z,2.53
2022-09-01T14:40:48.477Z,2.20
2022-09-01T14:45:49.768Z,2.20
2022-09-01T14:50:51.039Z,2.53
2022-09-01T14:55:55.647Z,1.90
2022-09-01T15:01:11.899Z,2.42
2022-09-01T15:06:20.695Z,1.85
2022-09-01T15:11:21.604Z,2.42
2022-09-01T15:16:27.501Z,2.35
2022-09-01T15:21:31.265Z,2.30
2022-09-01T15:26:32.734Z,2.45
2022-09-01T15:31:33.722Z,2.35
2022-09-01T15:36:38.949Z,2.35
2022-09-01T15:41:39.830Z,2.17
2022-09-01T15:46:42.281Z,2.05
2022-09-01T15:56:47.048Z,2.05
2022-09-01T16:06:50.375Z,1.87
2022-09-01T16:11:52.411Z,2.17
2022-09-01T16:17:12.378Z,2.07
2022-09-01T16:22:33.307Z,2.00
2022-09-01T16:27:40.480Z,2.22
2022-09-01T16:32:45.352Z,1.87
2022-09-01T16:43:11.114Z,2.10
2022-09-01T16:48:43.340Z,2.10
2022-09-01T16:55:36.191Z,2.37
2022-09-01T17:01:24.697Z,1.98
2022-09-01T17:06:32.269Z,2.03
2022-09-01T17:11:48.983Z,2.10
2022-09-01T17:16:54.009Z,2.10
2022-09-01T17:22:14.222Z,1.80
2022-09-01T17:27:47.754Z,1.65
2022-09-01T17:33:13.044Z,1.80
2022-09-01T17:38:53.368Z,2.03
2022-09-01T17:44:47.319Z,2.20
2022-09-01T17:50:15.504Z,1.90
2022-09-01T17:55:40.253Z,2.35
2022-09-01T18:01:08.999Z,2.30
2022-09-01T18:06:21.037Z,1.87
2022-09-01T18:11:46.272Z,1.60
2022-09-01T18:17:54.334Z,1.70
2022-09-01T18:23:04.281Z,2.10
2022-09-01T18:28:05.384Z,2.00
2022-09-01T18:33:44.104Z,1.90
2022-09-01T18:41:27.954Z,2.05
2022-09-01T18:47:01.083Z,2.20
2022-09-01T18:57:27.941Z,1.70
2022-09-01T19:03:06.302Z,2.42
2022-09-01T19:08:40.431Z,2.08
2022-09-01T19:14:08.961Z,1.80
2022-09-01T19:19:31.205Z,1.85
2022-09-01T19:24:37.504Z,1.90
2022-09-01T19:29:52.426Z,1.80
2022-09-01T19:34:57.807Z,1.58
2022-09-01T19:40:00.161Z,2.00
2022-09-01T19:48:18.483Z,1.92
2022-09-01T19:55:31.470Z,1.55
2022-09-01T20:00:50.909Z,1.90
2022-09-01T20:06:09.128Z,1.87
2022-09-01T20:11:21.917Z,1.87
2022-09-01T20:16:34.493Z,1.80
2022-09-01T20:21:39.863Z,1.98
2022-09-01T20:26:55.688Z,2.03
2022-09-01T20:31:58.461Z,2.10
2022-09-01T20:37:08.199Z,1.73
2022-09-01T20:42:30.462Z,1.77
2022-09-01T20:47:31.601Z,1.85
2022-09-01T20:52:55.287Z,1.58
2022-09-01T20:59:05.998Z,2.58
2022-09-01T21:06:09.564Z,1.58
2022-09-01T21:11:39.102Z,2.07
2022-09-01T21:17:17.173Z,2.15
2022-09-01T21:22:22.110Z,1.85
2022-09-01T21:27:32.396Z,2.03
2022-09-01T21:32:34.142Z,2.30
2022-09-01T21:37:35.098Z,2.53
2022-09-01T21:42:44.955Z,2.33
2022-09-01T21:47:47.838Z,2.25
2022-09-01T21:52:49.078Z,2.60
2022-09-01T21:57:51.482Z,2.05
2022-09-01T22:02:53.091Z,2.05
2022-09-01T22:07:57.642Z,2.28
2022-09-01T22:13:03.091Z,2.25
2022-09-01T22:18:04.527Z,2.25
2022-09-01T22:23:06.836Z,1.85
2022-09-01T22:28:08.765Z,2.37
2022-09-01T22:33:10.330Z,2.60
2022-09-01T22:38:11.781Z,2.25
2022-09-01T22:43:16.931Z,2.30
2022-09-01T22:48:20.444Z,2.20
2022-09-01T22:53:22.529Z,2.30
2022-09-01T22:58:23.913Z,2.77
2022-09-01T23:03:24.746Z,2.45
2022-09-01T23:08:25.621Z,1.85
2022-09-01T23:13:27.625Z,1.80
2022-09-01T23:18:30.973Z,2.43
2022-09-01T23:28:33.283Z,1.50
2022-09-01T23:33:34.148Z,1.67
2022-09-01T23:38:36.410Z,1.62
2022-09-01T23:43:37.842Z,1.80
2022-09-01T23:48:38.850Z,1.80
2022-09-01T23:53:39.717Z,1.65
2022-09-01T23:58:41.167Z,1.70
